Time;durP1;ratioP1;P1;durP2;ratioP2;P2;SDS_P1;SDS_P2;PMS_P1;PMS_P2;Temp;Humidity;BMP_temperature;BMP_pressure;BME280_temperature;BME280_humidity;BME280_pressure;Samples;Min_cycle;Max_cycle;Signal;HPM_P1;HPM_P2
2021/12/14 09:25:13;;;;;;;39.80;26.97;;;;;;;7.17;100.00;102697.59;5287376;27;20383;-76
2021/12/14 09:27:44;;;;;;;39.67;28.97;;;;;;;7.25;100.00;102699.19;5275229;28;20029;-76
2021/12/14 09:30:19;;;;;;;36.63;27.67;;;;;;;7.32;100.00;102699.06;5280819;28;20035;-76
2021/12/14 09:32:51;;;;;;;;;;;;;;;7.43;100.00;102702.38;5287778;28;20113;-76
2021/12/14 09:35:25;;;;;;;38.67;26.77;;;;;;;7.36;100.00;102699.03;5287585;28;19961;-76
2021/12/14 09:37:58;;;;;;;39.90;27.35;;;;;;;7.49;100.00;102699.66;5276281;28;20036;-75
2021/12/14 09:40:35;;;;;;;36.37;28.20;;;;;;;7.52;100.00;102680.50;5281699;28;20035;-78
2021/12/14 09:43:07;;;;;;;37.20;26.33;;;;;;;7.61;100.00;102682.09;5278002;28;20025;-75
2021/12/14 09:45:46;;;;;;;34.80;25.00;;;;;;;7.73;99.91;102692.28;5287014;28;20108;-76
2021/12/14 09:48:23;;;;;;;38.33;26.77;;;;;;;7.83;99.56;102698.22;5273026;28;20021;-76
2021/12/14 09:50:56;;;;;;;37.70;28.17;;;;;;;7.87;99.39;102688.59;5286197;28;20039;-75
2021/12/14 09:53:28;;;;;;;38.20;28.73;;;;;;;7.89;99.35;102680.72;5287403;28;20030;-75
2021/12/14 09:55:59;;;;;;;36.47;25.40;;;;;;;7.96;98.27;102672.75;5286481;28;20020;-75
2021/12/14 09:58:36;;;;;;;36.57;26.10;;;;;;;7.94;98.10;102669.31;5267728;28;20047;-75
2021/12/14 10:01:16;;;;;;;39.07;26.07;;;;;;;8.05;98.88;102670.84;5255208;28;20031;-75
2021/12/14 10:03:52;;;;;;;37.90;26.23;;;;;;;7.91;98.09;102658.94;5285601;28;20040;-75
2021/12/14 10:06:29;;;;;;;36.27;26.10;;;;;;;8.06;98.17;102662.16;5287224;28;20044;-76
2021/12/14 10:09:06;;;;;;;38.90;28.50;;;;;;;8.08;97.67;102658.59;5268815;28;20020;-75
2021/12/14 10:11:59;;;;;;;34.90;27.30;;;;;;;8.21;97.31;102672.28;5285358;28;20124;-77
2021/12/14 10:14:36;;;;;;;37.33;26.77;;;;;;;8.25;97.67;102672.19;5282236;28;20103;-75
2021/12/14 10:17:11;;;;;;;40.60;29.17;;;;;;;8.28;97.05;102677.34;5283122;28;20784;-74
2021/12/14 10:19:44;;;;;;;37.42;27.20;;;;;;;8.29;96.00;102677.31;5264843;28;20021;-85
2021/12/14 10:22:25;;;;;;;34.20;25.67;;;;;;;8.40;96.97;102686.69;5280434;28;20576;-74
2021/12/14 10:25:00;;;;;;;35.07;27.07;;;;;;;8.35;96.17;102679.81;5285885;28;20037;-75
2021/12/14 10:27:33;;;;;;;39.63;29.30;;;;;;;8.31;96.89;102682.50;5276994;28;20020;-75
2021/12/14 10:30:12;;;;;;;36.40;26.63;;;;;;;8.43;96.43;102682.25;5266820;28;20017;-73
2021/12/14 10:32:43;;;;;;;37.33;28.00;;;;;;;8.37;96.70;102687.63;5271805;28;20029;-75
2021/12/14 10:35:23;;;;;;;36.93;26.83;;;;;;;8.44;96.99;102689.22;5279517;28;20023;-76
2021/12/14 10:37:59;;;;;;;33.80;27.03;;;;;;;8.43;97.23;102687.47;5260085;28;20470;-76
2021/12/14 10:43:29;;;;;;;40.90;28.20;;;;;;;8.47;96.94;102694.38;5255242;28;20390;-75
2021/12/14 10:46:06;;;;;;;42.73;27.23;;;;;;;8.50;96.62;102692.59;5272978;28;20082;-73
2021/12/14 10:48:41;;;;;;;35.83;27.97;;;;;;;8.50;96.53;102690.81;5256249;28;20476;-74
2021/12/14 10:51:15;;;;;;;39.93;26.77;;;;;;;8.54;96.65;102696.84;5254888;28;20056;-76
2021/12/14 10:53:49;;;;;;;40.40;29.80;;;;;;;8.53;96.38;102698.59;5262032;28;20024;-75
2021/12/14 10:56:29;;;;;;;39.47;28.58;;;;;;;8.54;96.25;102683.78;5263952;28;20434;-76
2021/12/14 10:59:04;;;;;;;40.07;27.37;;;;;;;8.54;96.02;102679.41;5256051;28;20036;-76
2021/12/14 11:01:38;;;;;;;40.50;29.97;;;;;;;8.51;95.41;102676.88;5248501;28;20178;-77
2021/12/14 11:04:13;;;;;;;41.60;29.63;;;;;;;8.56;95.99;102684.66;5272287;28;20033;-76
2021/12/14 11:06:47;;;;;;;38.38;28.70;;;;;;;8.60;96.00;102681.09;5272319;28;20025;-76
2021/12/14 11:12:26;;;;;;;38.77;28.10;;;;;;;8.66;96.02;102675.72;5258160;28;20033;-76
2021/12/14 11:15:05;;;;;;;40.17;29.27;;;;;;;8.62;95.73;102670.59;5271399;28;20109;-75
2021/12/14 11:20:33;;;;;;;39.90;28.50;;;;;;;8.67;96.04;102672.22;5256883;28;20053;-75
2021/12/14 11:23:26;;;;;;;39.47;28.23;;;;;;;8.74;96.31;102664.22;5239513;28;20444;-76
2021/12/14 11:26:08;;;;;;;41.50;29.90;;;;;;;8.71;95.90;102655.56;5269688;28;20036;-76
2021/12/14 11:28:59;;;;;;;40.23;28.17;;;;;;;8.86;94.55;102666.56;5253435;28;20468;-76
2021/12/14 11:31:36;;;;;;;37.63;29.83;;;;;;;8.77;95.12;102658.94;5261475;28;20383;-75
2021/12/14 11:34:11;;;;;;;42.60;29.53;;;;;;;8.73;95.47;102654.69;5264358;28;20032;-76
2021/12/14 11:36:50;;;;;;;40.83;29.93;;;;;;;8.73;95.90;102647.69;5266076;28;20028;-76
2021/12/14 11:39:28;;;;;;;42.00;29.70;;;;;;;8.85;95.41;102653.53;5250168;28;20021;-76
2021/12/14 11:42:06;;;;;;;41.87;30.00;;;;;;;8.86;94.63;102647.41;5256719;28;20043;-76
2021/12/14 11:44:42;;;;;;;38.90;29.53;;;;;;;8.71;95.45;102637.28;5267907;28;20025;-75
2021/12/14 11:50:32;;;;;;;45.63;31.97;;;;;;;8.95;95.42;102648.03;5250166;28;20035;-78
2021/12/14 11:53:07;;;;;;;38.07;28.33;;;;;;;8.91;95.21;102650.78;5249277;28;20053;-77
2021/12/14 11:55:55;;;;;;;44.70;30.40;;;;;;;8.95;95.37;102650.66;5249494;28;20481;-77
2021/12/14 11:58:37;;;;;;;42.97;30.07;;;;;;;8.85;95.03;102630.03;5244495;28;20021;-78
2021/12/14 12:01:33;;;;;;;42.33;31.63;;;;;;;8.98;96.09;102646.25;5281995;28;20021;-75
2021/12/14 12:04:07;;;;;;;;;;;;;;;9.08;95.50;102652.97;5263799;28;20054;-76
2021/12/14 12:09:32;;;;;;;44.93;33.00;;;;;;;8.96;94.94;102654.13;5254370;28;20029;-75
2021/12/14 12:12:03;;;;;;;45.97;32.60;;;;;;;8.97;95.19;102655.00;5258146;28;20029;-74
2021/12/14 12:14:48;;;;;;;40.10;30.40;;;;;;;8.96;95.39;102659.38;5265523;28;20502;-73
2021/12/14 12:17:38;;;;;;;;;;;;;;;9.04;95.63;102661.81;5264466;28;20036;-74
2021/12/14 12:20:29;;;;;;;46.13;32.80;;;;;;;8.97;95.71;102650.66;5264985;28;20012;-75
2021/12/14 12:23:08;;;;;;;50.83;32.90;;;;;;;8.88;96.05;102649.13;5270260;28;20071;-75
2021/12/14 12:25:47;;;;;;;48.73;34.00;;;;;;;8.94;96.12;102654.19;5269831;28;20107;-75
2021/12/14 12:28:32;;;;;;;47.83;32.23;;;;;;;8.98;96.34;102657.59;5254391;28;20020;-75
2021/12/14 12:31:12;;;;;;;48.45;33.08;;;;;;;8.95;96.02;102666.34;5241319;28;20047;-75
2021/12/14 12:33:49;;;;;;;54.13;35.30;;;;;;;8.91;96.45;102656.88;5270318;28;20033;-75
2021/12/14 12:36:29;;;;;;;50.47;33.03;;;;;;;8.96;95.87;102654.13;5269312;28;20020;-76
2021/12/14 12:39:04;;;;;;;48.13;32.60;;;;;;;8.87;96.16;102650.00;5249715;28;20804;-76
2021/12/14 12:41:58;;;;;;;48.57;33.17;;;;;;;8.92;96.93;102653.34;5256092;28;20458;-75
2021/12/14 12:44:37;;;;;;;49.17;33.00;;;;;;;9.01;96.72;102648.78;5264142;28;20506;-74
2021/12/14 12:47:19;;;;;;;47.13;31.33;;;;;;;8.99;96.48;102635.75;5265330;28;20116;-76
2021/12/14 12:49:55;;;;;;;50.83;33.40;;;;;;;9.03;96.12;102639.16;5259308;28;20090;-76
2021/12/14 12:52:32;;;;;;;42.57;30.80;;;;;;;9.09;96.48;102636.41;5267741;28;20033;-74
2021/12/14 12:55:11;;;;;;;52.47;34.00;;;;;;;9.08;96.17;102639.91;5269759;28;20016;-75
2021/12/14 12:57:58;;;;;;;47.97;34.53;;;;;;;9.07;96.29;102638.22;5259262;28;20116;-75
2021/12/14 13:00:42;;;;;;;47.17;33.10;;;;;;;9.10;96.45;102637.25;5264167;28;20395;-75
2021/12/14 13:03:30;;;;;;;46.80;32.63;;;;;;;9.08;96.33;102638.16;5240221;28;20036;-76
2021/12/14 13:06:16;;;;;;;45.27;31.27;;;;;;;8.99;96.72;102629.69;5270330;28;20029;-77
2021/12/14 13:08:52;;;;;;;50.47;34.60;;;;;;;8.99;97.14;102642.78;5252148;28;20037;-76
2021/12/14 13:11:39;;;;;;;47.40;33.03;;;;;;;9.10;96.83;102651.19;5255670;28;20017;-77
2021/12/14 13:14:15;;;;;;;48.23;32.30;;;;;;;9.07;96.49;102652.16;5246282;28;20028;-78
2021/12/14 13:16:51;;;;;;;50.67;32.90;;;;;;;8.97;96.89;102634.97;5267310;28;20073;-78
2021/12/14 13:19:26;;;;;;;44.97;32.93;;;;;;;9.03;96.56;102637.41;5253572;28;20568;-76
2021/12/14 13:22:05;;;;;;;49.80;33.73;;;;;;;8.98;96.49;102625.34;5258429;28;20063;-77
2021/12/14 13:24:41;;;;;;;53.00;33.87;;;;;;;9.08;96.86;102643.41;5263668;28;20139;-77
2021/12/14 13:27:22;;;;;;;58.20;36.73;;;;;;;9.12;96.96;102632.84;5250458;28;21072;-77
2021/12/14 13:30:05;;;;;;;50.10;34.30;;;;;;;9.05;96.91;102630.41;5248157;28;20498;-75
2021/12/14 13:32:39;;;;;;;49.83;34.57;;;;;;;9.10;96.53;102632.91;5247906;28;20546;-74
2021/12/14 13:35:22;;;;;;;48.05;33.58;;;;;;;9.08;96.67;102637.28;5252915;28;20028;-76
2021/12/14 13:37:58;;;;;;;52.57;34.67;;;;;;;9.14;96.69;102634.56;5248473;28;20104;-75
2021/12/14 13:40:42;;;;;;;47.70;33.27;;;;;;;9.14;96.76;102641.53;5261531;28;20111;-75
2021/12/14 13:43:16;;;;;;;43.43;31.00;;;;;;;9.15;96.99;102641.47;5245138;28;20726;-74
2021/12/14 13:45:54;;;;;;;49.33;33.28;;;;;;;9.21;96.46;102637.88;5252320;28;20025;-74
2021/12/14 13:48:40;;;;;;;49.90;33.00;;;;;;;9.17;96.87;102644.06;5248505;28;20047;-75
2021/12/14 13:51:16;;;;;;;49.83;33.17;;;;;;;9.14;96.62;102638.91;5232599;28;20642;-80
2021/12/14 13:53:48;;;;;;;48.87;33.40;;;;;;;9.14;96.90;102634.56;5234250;28;20044;-80
2021/12/14 13:56:39;;;;;;;50.23;34.60;;;;;;;9.23;96.56;102632.59;5237829;28;20040;-82
2021/12/14 13:59:12;;;;;;;50.27;33.87;;;;;;;9.05;96.63;102616.47;5234933;28;20021;-80
2021/12/14 14:01:52;;;;;;;44.63;31.87;;;;;;;9.23;96.46;102629.97;5237284;28;20029;-79
2021/12/14 14:04:25;;;;;;;46.50;32.80;;;;;;;9.23;96.78;102630.84;5239161;28;20033;-80
2021/12/14 14:06:56;;;;;;;49.57;34.27;;;;;;;9.24;97.01;102623.84;5236956;28;20025;-80
2021/12/14 14:09:30;;;;;;;44.73;32.57;;;;;;;9.25;96.67;102636.03;5235623;28;20037;-84
2021/12/14 14:12:01;;;;;;;52.77;34.57;;;;;;;9.28;96.59;102631.59;5240989;28;20036;-80
2021/12/14 14:14:34;;;;;;;43.63;31.37;;;;;;;9.26;96.31;102629.91;5241738;28;20047;-79
2021/12/14 14:17:17;;;;;;;47.83;33.07;;;;;;;9.30;96.73;102627.16;5240195;28;20170;-78
2021/12/14 14:19:56;;;;;;;46.83;32.83;;;;;;;9.30;96.89;102626.31;5240479;28;20037;-82
2021/12/14 14:22:31;;;;;;;51.10;33.30;;;;;;;9.32;96.06;102624.50;5245404;28;20037;-79
2021/12/14 14:25:10;;;;;;;50.50;32.57;;;;;;;9.33;96.09;102626.22;5241036;28;20059;-77
2021/12/14 14:27:53;;;;;;;50.30;35.10;;;;;;;9.41;96.47;102620.78;5234035;28;20399;-77
2021/12/14 14:30:38;;;;;;;52.17;33.83;;;;;;;9.36;96.37;102620.91;5239128;28;20028;-77
2021/12/14 14:35:55;;;;;;;43.50;31.57;;;;;;;9.35;96.21;102624.44;5241345;28;20029;-83
2021/12/14 14:38:33;;;;;;;45.93;32.40;;;;;;;9.30;95.80;102621.94;5238240;28;20071;-79
2021/12/14 14:41:10;;;;;;;51.73;33.30;;;;;;;9.38;96.23;102626.09;5240553;28;20036;-78
2021/12/14 14:44:06;;;;;;;50.57;32.80;;;;;;;9.40;96.34;102629.53;5239554;28;20028;-81
2021/12/14 14:46:37;;;;;;;47.60;33.30;;;;;;;9.33;96.18;102631.47;5240238;28;20128;-86
2021/12/14 14:49:12;;;;;;;49.27;34.20;;;;;;;9.26;96.17;102625.53;5238655;28;20029;-84
2021/12/14 14:51:49;;;;;;;48.30;34.10;;;;;;;9.28;96.45;102634.19;5241004;28;20037;-80
2021/12/14 14:54:32;;;;;;;44.67;33.47;;;;;;;9.37;96.55;102632.25;5247207;28;20024;-76
2021/12/14 14:57:09;;;;;;;49.27;35.10;;;;;;;9.39;96.00;102638.31;5246114;28;20042;-74
2021/12/14 14:59:56;;;;;;;43.27;32.90;;;;;;;9.37;96.27;102635.72;5246098;28;20033;-78
2021/12/14 15:02:44;;;;;;;50.33;33.27;;;;;;;9.47;95.58;102632.84;5260809;28;20060;-76
2021/12/14 15:05:57;;;;;;;44.67;33.03;;;;;;;9.38;96.62;102640.03;5236692;28;20039;-77
2021/12/14 15:08:34;;;;;;;48.80;34.43;;;;;;;9.28;96.75;102636.81;5247107;28;20064;-76
2021/12/14 15:11:09;;;;;;;49.47;34.67;;;;;;;9.33;96.83;102647.16;5256567;28;20028;-76
2021/12/14 15:13:44;;;;;;;50.45;35.35;;;;;;;9.31;96.65;102647.19;5261681;28;20081;-74
2021/12/14 15:16:32;;;;;;;45.33;33.13;;;;;;;9.38;96.28;102655.75;5243129;28;20043;-78
2021/12/14 15:19:06;;;;;;;46.90;34.57;;;;;;;9.37;96.70;102655.78;5238922;28;20954;-75
2021/12/14 15:21:54;;;;;;;49.22;33.25;;;;;;;9.35;96.60;102658.44;5250964;28;20021;-76
2021/12/14 15:24:30;;;;;;;45.33;33.60;;;;;;;9.32;96.60;102669.81;5247683;28;20049;-76
2021/12/14 15:27:08;;;;;;;49.20;34.57;;;;;;;9.34;96.93;102661.09;5240491;28;20097;-73
2021/12/14 15:29:46;;;;;;;47.53;34.50;;;;;;;9.30;96.81;102658.53;5252754;28;20029;-75
2021/12/14 15:32:20;;;;;;;47.27;33.97;;;;;;;9.30;96.91;102661.16;5248040;28;20274;-75
2021/12/14 15:35:03;;;;;;;52.23;33.57;;;;;;;9.32;97.19;102667.19;5250589;28;20036;-76
2021/12/14 15:37:46;;;;;;;51.27;35.70;;;;;;;9.33;97.18;102668.06;5246594;28;20032;-75
2021/12/14 15:40:18;;;;;;;46.83;32.93;;;;;;;9.32;96.99;102663.72;5249971;28;20383;-75
2021/12/14 15:42:55;;;;;;;49.27;36.43;;;;;;;9.26;97.44;102671.72;5250372;28;20044;-76
2021/12/14 15:45:47;;;;;;;48.37;34.60;;;;;;;9.36;97.10;102678.44;5247991;28;20651;-76
2021/12/14 15:48:24;;;;;;;45.77;32.30;;;;;;;9.28;97.19;102675.16;5245648;28;20029;-76
2021/12/14 15:50:58;;;;;;;44.13;34.33;;;;;;;9.34;96.66;102669.78;5248527;28;20095;-76
2021/12/14 15:53:42;;;;;;;47.50;34.25;;;;;;;9.29;97.24;102676.88;5247923;28;20033;-76
2021/12/14 15:56:25;;;;;;;45.33;33.03;;;;;;;9.28;97.16;102670.81;5249079;28;20032;-79
2021/12/14 15:59:02;;;;;;;47.50;33.67;;;;;;;9.23;97.44;102677.03;5250423;28;20082;-75
2021/12/14 16:01:41;;;;;;;46.60;33.00;;;;;;;9.26;97.34;102674.34;5256196;28;20492;-76
2021/12/14 16:04:16;;;;;;;46.63;32.83;;;;;;;9.28;96.87;102681.28;5250828;28;20407;-77
2021/12/14 16:06:50;;;;;;;50.00;34.53;;;;;;;9.28;97.41;102675.16;5254461;28;20025;-75
2021/12/14 16:09:27;;;;;;;47.22;32.95;;;;;;;9.20;97.48;102678.81;5245680;28;20064;-75
2021/12/14 16:15:10;;;;;;;44.90;33.20;;;;;;;9.16;97.78;102674.56;5254810;28;20036;-74
2021/12/14 16:17:50;;;;;;;46.20;33.37;;;;;;;9.25;97.27;102680.47;5249485;28;20017;-74
2021/12/14 16:20:23;;;;;;;46.30;32.67;;;;;;;9.24;97.44;102679.63;5247510;28;20052;-73
2021/12/14 16:23:00;;;;;;;47.47;34.67;;;;;;;9.17;97.32;102684.13;5251772;28;20548;-86
2021/12/14 16:25:36;;;;;;;51.30;33.27;;;;;;;9.20;97.21;102673.59;5254114;28;20048;-83
2021/12/14 16:28:11;;;;;;;45.93;33.50;;;;;;;9.16;97.06;102687.63;5248837;28;20013;-84
2021/12/14 16:30:45;;;;;;;49.37;33.77;;;;;;;9.12;97.45;102685.13;5247645;28;20116;-80
2021/12/14 16:33:41;;;;;;;47.95;34.38;;;;;;;9.17;97.32;102683.28;5249025;28;20250;-82
2021/12/14 16:36:19;;;;;;;46.97;33.23;;;;;;;9.06;96.98;102676.53;5253905;28;20037;-80
2021/12/14 16:39:11;;;;;;;48.10;33.87;;;;;;;9.08;97.36;102685.22;5248834;28;20037;-85
2021/12/14 16:41:50;;;;;;;40.23;32.17;;;;;;;9.04;97.39;102685.34;5272535;28;20023;-81
2021/12/14 16:44:25;;;;;;;49.40;31.07;;;;;;;9.02;97.19;102684.50;5254164;28;20503;-86
2021/12/14 16:47:10;;;;;;;52.67;34.23;;;;;;;8.95;97.94;102692.47;5267279;28;20033;-84
2021/12/14 16:49:44;;;;;;;44.63;33.47;;;;;;;8.98;97.79;102690.69;5258002;28;20019;-87
2021/12/14 16:52:20;;;;;;;47.45;33.67;;;;;;;8.92;98.19;102687.31;5258147;28;20038;-83
2021/12/14 16:54:54;;;;;;;48.73;34.23;;;;;;;8.95;98.04;102695.09;5257065;28;20617;-87
2021/12/14 16:57:31;;;;;;;48.67;34.78;;;;;;;8.95;98.14;102692.47;5243836;28;20403;-79
2021/12/14 17:00:15;;;;;;;45.37;33.20;;;;;;;9.04;98.00;102695.78;5244816;28;20411;-86
2021/12/14 17:02:47;;;;;;;48.75;34.00;;;;;;;8.98;97.91;102699.41;5250158;28;20031;-82
2021/12/14 17:05:27;;;;;;;47.87;34.93;;;;;;;8.99;98.05;102705.50;5257145;28;20052;-83
2021/12/14 17:08:02;;;;;;;42.73;31.67;;;;;;;8.85;98.65;102690.13;5246207;28;20025;-84
2021/12/14 17:10:37;;;;;;;42.57;32.30;;;;;;;8.87;98.25;102690.94;5266191;28;20028;-82
2021/12/14 17:13:13;;;;;;;;;;;;;;;9.12;97.51;102712.16;5264008;28;20055;-93
2021/12/14 17:15:48;;;;;;;43.27;33.20;;;;;;;8.91;98.06;102708.25;5262307;28;19918;-85
2021/12/14 17:18:29;;;;;;;52.53;34.33;;;;;;;8.78;98.75;102697.25;5254256;28;20045;-79
2021/12/14 17:21:03;;;;;;;44.10;31.47;;;;;;;8.73;98.68;102686.03;5270095;28;20120;-84
2021/12/14 17:23:38;;;;;;;46.23;31.90;;;;;;;8.82;98.79;102696.25;5267326;28;20061;-83
2021/12/14 17:26:13;;;;;;;47.90;34.47;;;;;;;8.96;98.78;102719.47;5256995;22;20064;-81
2021/12/14 17:28:50;;;;;;;45.13;34.70;;;;;;;8.92;98.66;102725.69;5234730;28;20033;-84
2021/12/14 17:31:25;;;;;;;44.53;31.77;;;;;;;8.86;98.74;102711.00;5219996;28;20028;-81
2021/12/14 17:33:59;;;;;;;44.37;31.30;;;;;;;8.91;98.24;102716.97;5220860;28;20108;-79
2021/12/14 17:36:34;;;;;;;44.00;31.63;;;;;;;8.94;98.02;102713.41;5228515;28;20024;-83
2021/12/14 17:39:10;;;;;;;42.83;31.75;;;;;;;8.91;98.30;102718.72;5221617;28;20018;-81
2021/12/14 17:41:43;;;;;;;49.77;34.17;;;;;;;8.79;98.90;102715.50;5226798;28;20464;-81
2021/12/14 17:44:18;;;;;;;48.53;32.87;;;;;;;8.84;98.62;102718.00;5222507;28;20033;-82
2021/12/14 17:47:12;;;;;;;47.10;33.47;;;;;;;8.90;98.81;102725.69;5230203;28;20124;-83
2021/12/14 17:49:49;;;;;;;44.40;32.03;;;;;;;8.86;98.32;102721.44;5212320;28;20014;-83
2021/12/14 17:52:27;;;;;;;46.40;33.17;;;;;;;8.84;98.85;102723.22;5234638;28;20098;-81
2021/12/14 17:55:20;;;;;;;48.10;34.77;;;;;;;8.90;98.49;102717.84;5220347;28;20021;-88
2021/12/14 17:57:58;;;;;;;43.67;31.73;;;;;;;8.87;98.61;102715.31;5230114;28;20025;-80
2021/12/14 18:00:36;;;;;;;45.47;32.90;;;;;;;8.88;98.64;102716.19;5228417;28;20021;-83
2021/12/14 18:03:21;;;;;;;45.53;31.33;;;;;;;8.87;98.79;102723.16;5231500;28;20044;-91
2021/12/14 18:05:59;;;;;;;43.93;30.60;;;;;;;8.84;98.92;102720.63;5225804;28;20121;-82
2021/12/14 18:08:34;;;;;;;47.50;32.30;;;;;;;8.87;98.88;102727.50;5222387;28;20057;-78
2021/12/14 18:11:12;;;;;;;47.77;31.83;;;;;;;8.87;98.69;102732.72;5216836;28;20113;-84
2021/12/14 18:13:57;;;;;;;41.13;29.17;;;;;;;8.87;98.96;102727.50;5214518;28;20036;-80
2021/12/14 18:16:48;;;;;;;45.30;31.47;;;;;;;8.82;99.13;102731.09;5225783;28;20029;-89
2021/12/14 18:19:23;;;;;;;45.07;31.70;;;;;;;8.87;99.29;102728.38;5234079;28;20057;-84
2021/12/14 18:21:58;;;;;;;44.20;32.10;;;;;;;8.88;98.87;102732.72;5245717;28;20021;-86
2021/12/14 18:24:37;;;;;;;43.80;30.33;;;;;;;8.86;98.90;102726.66;5233977;28;20049;-79
2021/12/14 18:27:29;;;;;;;46.03;32.17;;;;;;;8.84;99.10;102736.28;5220283;28;20132;-81
2021/12/14 18:30:06;;;;;;;40.93;29.30;;;;;;;8.89;98.91;102736.19;5240470;28;20388;-80
2021/12/14 18:32:42;;;;;;;38.40;29.77;;;;;;;8.88;99.04;102740.56;5222109;28;20097;-78
2021/12/14 18:35:25;;;;;;;44.57;32.43;;;;;;;8.84;99.29;102744.13;5225415;28;20026;-79
2021/12/14 18:38:04;;;;;;;48.63;31.30;;;;;;;8.85;99.13;102731.94;5223512;28;20053;-83
2021/12/14 18:40:46;;;;;;;45.87;32.63;;;;;;;8.87;99.17;102740.56;5227400;28;20497;-86
2021/12/14 18:43:23;;;;;;;43.70;30.77;;;;;;;8.81;99.31;102728.53;5223801;28;20481;-79
2021/12/14 18:46:04;;;;;;;41.83;30.93;;;;;;;8.83;99.26;102737.19;5217819;28;20753;-76
2021/12/14 18:51:45;;;;;;;44.90;32.47;;;;;;;8.83;99.54;102748.47;5217793;28;20046;-85
2021/12/14 18:54:22;;;;;;;55.33;35.03;;;;;;;8.92;99.16;102752.66;5220694;28;20068;-80
2021/12/14 18:56:56;;;;;;;48.10;34.90;;;;;;;8.86;99.58;102746.69;5219674;28;20642;-79
2021/12/14 18:59:30;;;;;;;48.17;33.67;;;;;;;8.86;100.00;102758.03;5218020;28;20079;-79
2021/12/14 19:02:14;;;;;;;45.55;32.90;;;;;;;8.92;99.81;102762.28;5223844;28;20028;-81
2021/12/14 19:04:50;;;;;;;46.83;33.08;;;;;;;8.80;99.92;102758.13;5227747;28;20025;-86
2021/12/14 19:07:47;;;;;;;48.43;32.93;;;;;;;8.87;100.00;102764.09;5218210;28;20029;-83
2021/12/14 19:10:27;;;;;;;43.00;33.43;;;;;;;8.83;99.84;102766.78;5223119;28;20026;-85
2021/12/14 19:12:59;;;;;;;45.70;32.37;;;;;;;8.83;100.00;102768.56;5220260;28;20472;-81
2021/12/14 19:15:34;;;;;;;43.33;34.03;;;;;;;8.89;100.00;102767.53;5217250;28;20025;-81
2021/12/14 19:18:10;;;;;;;45.47;33.63;;;;;;;8.91;99.93;102776.22;5216123;28;20033;-77
2021/12/14 19:20:53;;;;;;;49.73;35.00;;;;;;;8.85;99.82;102768.50;5219158;28;20512;-80
2021/12/14 19:23:47;;;;;;;44.37;34.43;;;;;;;8.91;99.77;102771.84;5213831;28;20036;-76
2021/12/14 19:26:22;;;;;;;43.17;32.87;;;;;;;8.81;99.74;102765.94;5216744;28;20521;-81
2021/12/14 19:28:59;;;;;;;44.77;33.50;;;;;;;8.88;99.95;102766.69;5221247;28;20036;-78
2021/12/14 19:31:31;;;;;;;46.10;32.17;;;;;;;8.86;99.43;102765.88;5218360;28;20465;-74
2021/12/14 19:34:03;;;;;;;40.83;31.23;;;;;;;8.87;99.51;102775.41;5213984;28;20040;-74
2021/12/14 19:36:34;;;;;;;48.63;35.77;;;;;;;8.83;99.66;102773.78;5227324;28;20431;-77
2021/12/14 19:39:09;;;;;;;48.10;32.97;;;;;;;8.87;99.67;102762.34;5222442;28;20025;-82
2021/12/14 19:41:42;;;;;;;47.07;33.83;;;;;;;8.89;99.42;102778.84;5224899;28;20569;-77
2021/12/14 19:44:19;;;;;;;45.03;34.60;;;;;;;8.92;99.40;102775.34;5210329;28;20030;-78
2021/12/14 19:47:01;;;;;;;46.43;32.53;;;;;;;8.88;99.66;102778.91;5219251;28;20041;-78
2021/12/14 19:49:36;;;;;;;45.57;34.20;;;;;;;8.86;99.68;102772.84;5211334;28;20022;-78
2021/12/14 19:52:10;;;;;;;50.37;34.00;;;;;;;8.79;99.45;102759.03;5224486;28;20060;-76
2021/12/14 19:54:48;;;;;;;46.50;32.55;;;;;;;8.91;99.26;102774.47;5208857;28;20109;-76
2021/12/14 19:57:34;;;;;;;48.57;35.43;;;;;;;8.86;99.79;102773.72;5220931;28;20485;-76
2021/12/14 20:00:14;;;;;;;45.03;32.93;;;;;;;8.81;99.52;102775.56;5225352;28;20029;-75
2021/12/14 20:02:52;;;;;;;44.70;33.00;;;;;;;8.85;99.55;102781.56;5217322;28;20025;-80
2021/12/14 20:05:30;;;;;;;46.53;33.20;;;;;;;8.81;99.81;102772.94;5215353;28;20040;-76
2021/12/14 20:08:15;;;;;;;46.20;31.50;;;;;;;8.88;99.58;102785.00;5216730;28;20026;-77
2021/12/14 20:10:53;;;;;;;;;;;;;;;9.00;98.78;102785.59;5219230;28;20477;-76
2021/12/14 20:13:26;;;;;;;42.03;31.67;;;;;;;8.81;99.89;102783.41;5227529;28;19916;-77
2021/12/14 20:15:58;;;;;;;47.27;34.63;;;;;;;8.70;100.00;102781.00;5225587;28;20496;-76
2021/12/14 20:18:34;;;;;;;58.13;34.07;;;;;;;8.75;100.00;102778.28;5223362;28;20057;-76
2021/12/14 20:21:12;;;;;;;44.57;32.77;;;;;;;8.77;100.00;102781.72;5224765;28;20055;-76
2021/12/14 20:23:49;;;;;;;46.13;35.20;;;;;;;8.77;100.00;102773.88;5218650;28;20751;-76
2021/12/14 20:26:33;;;;;;;43.13;34.13;;;;;;;8.80;99.67;102779.91;5220434;28;20220;-76
2021/12/14 20:29:13;;;;;;;47.80;35.00;;;;;;;8.76;99.84;102767.78;5217218;28;20113;-78
2021/12/14 20:31:49;;;;;;;47.57;33.57;;;;;;;8.87;99.51;102779.78;5219928;28;20044;-78
2021/12/14 20:34:32;;;;;;;43.17;32.97;;;;;;;8.81;99.85;102779.00;5223223;28;20049;-82
2021/12/14 20:37:05;;;;;;;41.33;31.60;;;;;;;8.80;99.76;102784.28;5218320;28;20018;-83
2021/12/14 20:39:40;;;;;;;44.50;32.80;;;;;;;8.78;100.00;102791.31;5218694;28;20497;-75
2021/12/14 20:42:27;;;;;;;44.60;34.43;;;;;;;8.85;100.00;102792.03;5219642;28;20083;-77
2021/12/14 20:47:46;;;;;;;41.30;32.57;;;;;;;8.85;99.69;102787.63;5218431;28;20455;-78
2021/12/14 20:50:23;;;;;;;46.27;34.27;;;;;;;8.78;100.00;102780.84;5221496;28;20025;-78
2021/12/14 20:52:59;;;;;;;44.03;32.83;;;;;;;8.83;100.00;102784.22;5220236;28;20057;-76
2021/12/14 20:55:42;;;;;;;44.30;32.47;;;;;;;8.81;100.00;102778.16;5214966;28;20037;-75
2021/12/14 20:58:28;;;;;;;40.77;31.80;;;;;;;8.77;100.00;102773.88;5221927;28;20056;-80
2021/12/14 21:01:04;;;;;;;46.23;33.67;;;;;;;8.76;100.00;102787.84;5227454;28;20018;-81
2021/12/14 21:03:39;;;;;;;50.60;32.30;;;;;;;8.83;100.00;102784.22;5213670;28;20035;-79
2021/12/14 21:06:23;;;;;;;43.67;33.13;;;;;;;8.80;100.00;102792.09;5222345;28;20030;-79
2021/12/14 21:08:59;;;;;;;41.07;31.53;;;;;;;8.79;100.00;102783.44;5219980;28;20480;-80
2021/12/14 21:11:37;;;;;;;45.50;32.80;;;;;;;8.76;99.99;102783.47;5218108;28;20284;-80
2021/12/14 21:14:14;;;;;;;38.70;29.97;;;;;;;8.79;100.00;102793.00;5218590;28;20021;-80
2021/12/14 21:16:50;;;;;;;42.60;32.23;;;;;;;8.82;99.93;102787.72;5220144;28;20064;-78
2021/12/14 21:19:29;;;;;;;40.97;29.80;;;;;;;8.90;99.92;102800.63;5220240;28;20029;-79
2021/12/14 21:22:23;;;;;;;45.63;32.23;;;;;;;8.87;99.90;102795.44;5218276;28;20075;-78
2021/12/14 21:25:00;;;;;;;41.23;29.53;;;;;;;8.87;100.00;102785.88;5221158;28;20553;-76
2021/12/14 21:27:36;;;;;;;42.20;32.33;;;;;;;8.80;99.67;102782.53;5211603;28;20025;-74
2021/12/14 21:30:11;;;;;;;41.40;32.80;;;;;;;8.85;99.79;102792.03;5216232;28;20041;-74
2021/12/14 21:32:47;;;;;;;42.33;31.47;;;;;;;8.86;99.60;102784.16;5217148;28;20029;-81
2021/12/14 21:35:22;;;;;;;47.10;33.03;;;;;;;8.89;99.52;102789.31;5224135;28;20030;-78
2021/12/14 21:38:00;;;;;;;42.22;31.13;;;;;;;8.87;99.61;102780.63;5220115;28;20038;-80
2021/12/14 21:40:38;;;;;;;40.53;31.83;;;;;;;8.90;99.23;102785.78;5222699;28;20795;-77
2021/12/14 21:43:19;;;;;;;39.53;29.80;;;;;;;8.89;99.64;102789.31;5213012;28;20030;-72
2021/12/14 21:45:54;;;;;;;42.20;29.93;;;;;;;8.90;99.51;102788.41;5232072;28;20033;-75
2021/12/14 21:48:25;;;;;;;44.10;32.07;;;;;;;8.84;99.34;102785.94;5221086;28;20447;-80
2021/12/14 21:50:56;;;;;;;38.53;29.83;;;;;;;8.78;99.52;102784.31;5224383;28;20032;-90
2021/12/14 21:53:28;;;;;;;40.10;31.40;;;;;;;8.86;99.56;102788.50;5211737;28;20092;-84
2021/12/14 21:56:00;;;;;;;38.60;29.90;;;;;;;8.86;99.10;102783.28;5211081;28;20030;-76
2021/12/14 21:58:31;;;;;;;38.40;29.40;;;;;;;8.76;99.67;102798.31;5216993;28;20030;-78